sensor_id;sensor_type;location;lat;lon;timestamp;P1;durP1;ratioP1;P2;durP2;ratioP2
5414;SDS011;2730;51.512;7.504;2022-10-22T05:01:26;18.60;;;8.35;;
5414;SDS011;2730;51.512;7.504;2022-10-22T05:03:55;19.88;;;7.55;;
5414;SDS011;2730;51.512;7.504;2022-10-22T05:06:23;11.20;;;7.30;;
5414;SDS011;2730;51.512;7.504;2022-10-22T05:08:51;21.30;;;6.43;;
5414;SDS011;2730;51.512;7.504;2022-10-22T05:11:20;14.15;;;7.18;;
5414;SDS011;2730;51.512;7.504;2022-10-22T05:13:48;13.48;;;6.55;;
5414;SDS011;2730;51.512;7.504;2022-10-22T05:16:15;13.25;;;6.80;;
5414;SDS011;2730;51.512;7.504;2022-10-22T05:18:44;24.58;;;8.50;;
5414;SDS011;2730;51.512;7.504;2022-10-22T05:21:11;16.13;;;7.68;;
5414;SDS011;2730;51.512;7.504;2022-10-22T05:23:39;17.58;;;7.80;;
5414;SDS011;2730;51.512;7.504;2022-10-22T05:26:07;15.15;;;7.55;;
5414;SDS011;2730;51.512;7.504;2022-10-22T05:28:35;19.50;;;9.13;;
5414;SDS011;2730;51.512;7.504;2022-10-22T05:31:02;18.70;;;7.50;;
5414;SDS011;2730;51.512;7.504;2022-10-22T05:33:31;16.67;;;7.65;;
5414;SDS011;2730;51.512;7.504;2022-10-22T05:36:00;15.27;;;7.78;;
5414;SDS011;2730;51.512;7.504;2022-10-22T05:38:28;16.25;;;8.18;;
5414;SDS011;2730;51.512;7.504;2022-10-22T05:40:58;22.23;;;9.90;;
5414;SDS011;2730;51.512;7.504;2022-10-22T05:43:26;24.88;;;8.60;;
5414;SDS011;2730;51.512;7.504;2022-10-22T05:45:53;18.10;;;8.77;;
5414;SDS011;2730;51.512;7.504;2022-10-22T05:48:20;21.48;;;10.07;;
5414;SDS011;2730;51.512;7.504;2022-10-22T05:50:47;13.52;;;8.35;;
5414;SDS011;2730;51.512;7.504;2022-10-22T05:53:16;24.88;;;9.82;;
5414;SDS011;2730;51.512;7.504;2022-10-22T05:55:44;19.00;;;9.18;;
5414;SDS011;2730;51.512;7.504;2022-10-22T05:58:11;17.45;;;8.55;;
5414;SDS011;2730;51.512;7.504;2022-10-22T06:00:38;24.35;;;9.57;;
5414;SDS011;2730;51.512;7.504;2022-10-22T06:03:05;22.45;;;10.00;;
5414;SDS011;2730;51.512;7.504;2022-10-22T06:05:33;19.35;;;8.95;;
5414;SDS011;2730;51.512;7.504;2022-10-22T06:08:01;21.83;;;10.82;;
5414;SDS011;2730;51.512;7.504;2022-10-22T06:10:30;20.15;;;10.27;;
5414;SDS011;2730;51.512;7.504;2022-10-22T06:12:57;17.50;;;9.55;;
5414;SDS011;2730;51.512;7.504;2022-10-22T06:15:25;19.15;;;9.90;;
5414;SDS011;2730;51.512;7.504;2022-10-22T06:17:52;21.25;;;10.18;;
5414;SDS011;2730;51.512;7.504;2022-10-22T06:20:19;14.90;;;9.15;;
5414;SDS011;2730;51.512;7.504;2022-10-22T06:22:45;27.63;;;10.10;;
5414;SDS011;2730;51.512;7.504;2022-10-22T06:25:13;18.92;;;9.30;;
5414;SDS011;2730;51.512;7.504;2022-10-22T06:27:41;27.30;;;10.85;;
5414;SDS011;2730;51.512;7.504;2022-10-22T06:30:08;16.20;;;9.00;;
5414;SDS011;2730;51.512;7.504;2022-10-22T06:32:36;28.58;;;11.35;;
5414;SDS011;2730;51.512;7.504;2022-10-22T06:35:03;16.27;;;10.07;;
5414;SDS011;2730;51.512;7.504;2022-10-22T06:37:30;21.45;;;10.88;;
5414;SDS011;2730;51.512;7.504;2022-10-22T06:39:57;21.67;;;11.00;;
5414;SDS011;2730;51.512;7.504;2022-10-22T06:42:23;26.05;;;11.02;;
5414;SDS011;2730;51.512;7.504;2022-10-22T06:44:52;22.50;;;12.35;;
5414;SDS011;2730;51.512;7.504;2022-10-22T06:47:18;22.80;;;11.70;;
5414;SDS011;2730;51.512;7.504;2022-10-22T06:49:45;21.65;;;11.45;;
5414;SDS011;2730;51.512;7.504;2022-10-22T06:52:14;18.98;;;11.55;;
5414;SDS011;2730;51.512;7.504;2022-10-22T06:54:42;21.52;;;11.45;;
5414;SDS011;2730;51.512;7.504;2022-10-22T06:57:08;20.40;;;10.98;;
5414;SDS011;2730;51.512;7.504;2022-10-22T06:59:36;26.38;;;11.45;;
5414;SDS011;2730;51.512;7.504;2022-10-22T07:02:04;22.05;;;10.85;;
5414;SDS011;2730;51.512;7.504;2022-10-22T07:04:31;20.85;;;11.20;;
5414;SDS011;2730;51.512;7.504;2022-10-22T07:06:58;24.33;;;10.80;;
5414;SDS011;2730;51.512;7.504;2022-10-22T07:09:25;14.93;;;9.55;;
5414;SDS011;2730;51.512;7.504;2022-10-22T07:11:52;23.38;;;10.15;;
5414;SDS011;2730;51.512;7.504;2022-10-22T07:14:19;30.42;;;9.88;;
5414;SDS011;2730;51.512;7.504;2022-10-22T07:16:45;30.35;;;9.68;;
5414;SDS011;2730;51.512;7.504;2022-10-22T07:19:14;21.65;;;9.45;;
5414;SDS011;2730;51.512;7.504;2022-10-22T07:21:40;29.80;;;10.00;;
5414;SDS011;2730;51.512;7.504;2022-10-22T07:24:07;14.98;;;8.55;;
5414;SDS011;2730;51.512;7.504;2022-10-22T07:26:34;22.00;;;10.07;;
5414;SDS011;2730;51.512;7.504;2022-10-22T07:29:01;26.55;;;8.40;;
5414;SDS011;2730;51.512;7.504;2022-10-22T07:31:29;18.75;;;7.35;;
5414;SDS011;2730;51.512;7.504;2022-10-22T07:33:56;13.10;;;6.45;;
5414;SDS011;2730;51.512;7.504;2022-10-22T07:36:24;9.68;;;6.40;;
5414;SDS011;2730;51.512;7.504;2022-10-22T07:38:54;9.83;;;6.20;;
5414;SDS011;2730;51.512;7.504;2022-10-22T07:41:23;8.30;;;5.70;;
5414;SDS011;2730;51.512;7.504;2022-10-22T07:43:50;9.53;;;5.17;;
5414;SDS011;2730;51.512;7.504;2022-10-22T07:46:17;6.87;;;4.43;;
5414;SDS011;2730;51.512;7.504;2022-10-22T07:48:44;5.50;;;3.95;;
5414;SDS011;2730;51.512;7.504;2022-10-22T07:51:13;6.83;;;3.87;;
5414;SDS011;2730;51.512;7.504;2022-10-22T07:53:42;9.83;;;4.30;;
5414;SDS011;2730;51.512;7.504;2022-10-22T07:56:09;5.30;;;3.50;;
5414;SDS011;2730;51.512;7.504;2022-10-22T07:58:36;3.50;;;3.20;;
5414;SDS011;2730;51.512;7.504;2022-10-22T08:01:03;5.30;;;3.50;;
5414;SDS011;2730;51.512;7.504;2022-10-22T08:03:31;9.63;;;3.43;;
5414;SDS011;2730;51.512;7.504;2022-10-22T08:05:58;6.43;;;3.53;;
5414;SDS011;2730;51.512;7.504;2022-10-22T08:08:26;4.50;;;3.60;;
5414;SDS011;2730;51.512;7.504;2022-10-22T08:10:55;5.07;;;3.27;;
5414;SDS011;2730;51.512;7.504;2022-10-22T08:13:23;3.43;;;2.97;;
5414;SDS011;2730;51.512;7.504;2022-10-22T08:15:51;5.53;;;3.40;;
5414;SDS011;2730;51.512;7.504;2022-10-22T08:18:18;8.07;;;3.23;;
5414;SDS011;2730;51.512;7.504;2022-10-22T08:20:45;13.83;;;3.33;;
5414;SDS011;2730;51.512;7.504;2022-10-22T08:23:12;5.57;;;3.33;;
5414;SDS011;2730;51.512;7.504;2022-10-22T08:25:38;5.33;;;3.13;;
5414;SDS011;2730;51.512;7.504;2022-10-22T08:28:07;7.63;;;3.40;;
5414;SDS011;2730;51.512;7.504;2022-10-22T08:30:33;10.13;;;2.80;;
5414;SDS011;2730;51.512;7.504;2022-10-22T08:33:02;7.63;;;3.00;;
5414;SDS011;2730;51.512;7.504;2022-10-22T08:35:29;20.23;;;2.87;;
5414;SDS011;2730;51.512;7.504;2022-10-22T08:37:56;6.63;;;2.57;;
5414;SDS011;2730;51.512;7.504;2022-10-22T08:40:24;6.93;;;2.27;;
5414;SDS011;2730;51.512;7.504;2022-10-22T08:43:04;3.57;;;2.10;;
5414;SDS011;2730;51.512;7.504;2022-10-22T08:45:50;8.47;;;2.50;;
5414;SDS011;2730;51.512;7.504;2022-10-22T08:48:26;6.17;;;2.87;;
5414;SDS011;2730;51.512;7.504;2022-10-22T08:51:02;3.63;;;2.00;;
5414;SDS011;2730;51.512;7.504;2022-10-22T08:53:31;6.73;;;2.30;;
5414;SDS011;2730;51.512;7.504;2022-10-22T08:56:04;9.57;;;2.23;;
5414;SDS011;2730;51.512;7.504;2022-10-22T08:58:35;4.67;;;2.37;;
5414;SDS011;2730;51.512;7.504;2022-10-22T09:01:09;4.20;;;1.70;;
5414;SDS011;2730;51.512;7.504;2022-10-22T09:03:40;6.50;;;2.30;;
5414;SDS011;2730;51.512;7.504;2022-10-22T09:06:16;10.93;;;2.10;;
5414;SDS011;2730;51.512;7.504;2022-10-22T09:08:46;10.63;;;2.17;;
5414;SDS011;2730;51.512;7.504;2022-10-22T09:11:25;3.53;;;2.00;;
5414;SDS011;2730;51.512;7.504;2022-10-22T09:13:55;2.40;;;1.97;;
5414;SDS011;2730;51.512;7.504;2022-10-22T09:16:25;2.80;;;1.80;;
5414;SDS011;2730;51.512;7.504;2022-10-22T09:19:02;6.23;;;2.23;;
5414;SDS011;2730;51.512;7.504;2022-10-22T09:21:39;4.07;;;2.30;;
5414;SDS011;2730;51.512;7.504;2022-10-22T09:24:15;3.20;;;2.30;;
5414;SDS011;2730;51.512;7.504;2022-10-22T09:26:51;6.17;;;3.13;;
5414;SDS011;2730;51.512;7.504;2022-10-22T09:29:21;4.30;;;2.67;;
5414;SDS011;2730;51.512;7.504;2022-10-22T09:31:55;3.43;;;2.60;;
5414;SDS011;2730;51.512;7.504;2022-10-22T09:34:22;6.83;;;2.60;;
5414;SDS011;2730;51.512;7.504;2022-10-22T09:36:55;4.13;;;2.00;;
5414;SDS011;2730;51.512;7.504;2022-10-22T09:39:24;16.10;;;3.13;;
5414;SDS011;2730;51.512;7.504;2022-10-22T09:41:52;7.10;;;2.60;;
5414;SDS011;2730;51.512;7.504;2022-10-22T09:44:20;7.80;;;2.77;;
5414;SDS011;2730;51.512;7.504;2022-10-22T09:46:47;4.87;;;2.50;;
5414;SDS011;2730;51.512;7.504;2022-10-22T09:49:14;5.43;;;2.13;;
5414;SDS011;2730;51.512;7.504;2022-10-22T09:51:50;4.67;;;2.33;;
5414;SDS011;2730;51.512;7.504;2022-10-22T09:54:19;3.97;;;2.50;;
5414;SDS011;2730;51.512;7.504;2022-10-22T09:56:52;4.60;;;2.03;;
5414;SDS011;2730;51.512;7.504;2022-10-22T09:59:30;8.63;;;2.87;;
5414;SDS011;2730;51.512;7.504;2022-10-22T10:01:59;4.33;;;3.50;;
5414;SDS011;2730;51.512;7.504;2022-10-22T10:04:32;8.50;;;2.73;;
5414;SDS011;2730;51.512;7.504;2022-10-22T10:07:00;7.47;;;2.30;;
5414;SDS011;2730;51.512;7.504;2022-10-22T10:09:28;2.60;;;2.40;;
5414;SDS011;2730;51.512;7.504;2022-10-22T10:12:01;2.90;;;2.10;;
5414;SDS011;2730;51.512;7.504;2022-10-22T10:14:41;5.53;;;2.20;;
5414;SDS011;2730;51.512;7.504;2022-10-22T10:17:20;3.90;;;2.77;;
5414;SDS011;2730;51.512;7.504;2022-10-22T10:19:59;3.37;;;2.27;;
5414;SDS011;2730;51.512;7.504;2022-10-22T10:22:40;3.13;;;2.20;;
5414;SDS011;2730;51.512;7.504;2022-10-22T10:25:19;6.50;;;2.00;;
5414;SDS011;2730;51.512;7.504;2022-10-22T10:28:09;8.23;;;2.53;;
5414;SDS011;2730;51.512;7.504;2022-10-22T10:30:53;8.90;;;3.20;;
5414;SDS011;2730;51.512;7.504;2022-10-22T10:33:27;4.27;;;2.00;;
5414;SDS011;2730;51.512;7.504;2022-10-22T10:36:03;4.60;;;2.17;;
5414;SDS011;2730;51.512;7.504;2022-10-22T10:38:41;2.47;;;1.90;;
5414;SDS011;2730;51.512;7.504;2022-10-22T10:41:16;2.37;;;2.03;;
5414;SDS011;2730;51.512;7.504;2022-10-22T10:43:58;3.70;;;2.07;;
5414;SDS011;2730;51.512;7.504;2022-10-22T10:46:48;9.70;;;2.20;;
5414;SDS011;2730;51.512;7.504;2022-10-22T10:49:22;2.60;;;2.13;;
5414;SDS011;2730;51.512;7.504;2022-10-22T10:51:52;8.23;;;2.40;;
5414;SDS011;2730;51.512;7.504;2022-10-22T10:54:29;9.70;;;2.07;;
5414;SDS011;2730;51.512;7.504;2022-10-22T10:57:06;8.57;;;2.47;;
5414;SDS011;2730;51.512;7.504;2022-10-22T10:59:42;4.20;;;2.00;;
5414;SDS011;2730;51.512;7.504;2022-10-22T11:02:28;8.03;;;1.80;;
5414;SDS011;2730;51.512;7.504;2022-10-22T11:05:25;7.60;;;2.30;;
5414;SDS011;2730;51.512;7.504;2022-10-22T11:07:58;5.07;;;1.80;;
5414;SDS011;2730;51.512;7.504;2022-10-22T11:10:29;2.07;;;1.87;;
5414;SDS011;2730;51.512;7.504;2022-10-22T11:13:02;2.93;;;1.50;;
5414;SDS011;2730;51.512;7.504;2022-10-22T11:15:33;18.67;;;2.30;;
5414;SDS011;2730;51.512;7.504;2022-10-22T11:18:07;6.33;;;1.50;;
5414;SDS011;2730;51.512;7.504;2022-10-22T11:20:47;4.23;;;1.23;;
5414;SDS011;2730;51.512;7.504;2022-10-22T11:23:21;1.90;;;1.40;;
5414;SDS011;2730;51.512;7.504;2022-10-22T11:25:53;5.67;;;1.53;;
5414;SDS011;2730;51.512;7.504;2022-10-22T11:28:22;1.40;;;1.13;;
5414;SDS011;2730;51.512;7.504;2022-10-22T11:30:53;4.83;;;1.20;;
5414;SDS011;2730;51.512;7.504;2022-10-22T11:33:27;3.70;;;1.73;;
5414;SDS011;2730;51.512;7.504;2022-10-22T11:36:01;3.50;;;1.60;;
5414;SDS011;2730;51.512;7.504;2022-10-22T11:38:30;9.10;;;1.70;;
5414;SDS011;2730;51.512;7.504;2022-10-22T11:41:00;4.30;;;1.17;;
5414;SDS011;2730;51.512;7.504;2022-10-22T11:43:30;4.50;;;1.60;;
5414;SDS011;2730;51.512;7.504;2022-10-22T11:46:01;4.80;;;1.20;;
5414;SDS011;2730;51.512;7.504;2022-10-22T11:48:45;5.10;;;1.80;;
5414;SDS011;2730;51.512;7.504;2022-10-22T11:51:28;5.77;;;1.20;;
5414;SDS011;2730;51.512;7.504;2022-10-22T11:53:57;4.70;;;1.40;;
5414;SDS011;2730;51.512;7.504;2022-10-22T11:56:35;4.03;;;1.10;;
5414;SDS011;2730;51.512;7.504;2022-10-22T11:59:03;4.50;;;1.87;;
5414;SDS011;2730;51.512;7.504;2022-10-22T12:01:55;4.50;;;2.00;;
5414;SDS011;2730;51.512;7.504;2022-10-22T12:04:23;6.67;;;1.77;;
5414;SDS011;2730;51.512;7.504;2022-10-22T12:07:24;3.33;;;1.40;;
5414;SDS011;2730;51.512;7.504;2022-10-22T12:09:57;13.03;;;1.80;;
5414;SDS011;2730;51.512;7.504;2022-10-22T12:12:24;7.00;;;1.60;;
5414;SDS011;2730;51.512;7.504;2022-10-22T12:14:53;4.53;;;1.30;;
5414;SDS011;2730;51.512;7.504;2022-10-22T12:17:23;5.20;;;1.63;;
5414;SDS011;2730;51.512;7.504;2022-10-22T12:19:56;2.60;;;1.50;;
5414;SDS011;2730;51.512;7.504;2022-10-22T12:22:27;8.83;;;2.83;;
5414;SDS011;2730;51.512;7.504;2022-10-22T12:24:58;4.93;;;1.53;;
5414;SDS011;2730;51.512;7.504;2022-10-22T12:27:26;3.57;;;1.50;;
5414;SDS011;2730;51.512;7.504;2022-10-22T12:29:59;4.30;;;1.40;;
5414;SDS011;2730;51.512;7.504;2022-10-22T12:32:28;1.90;;;1.13;;
5414;SDS011;2730;51.512;7.504;2022-10-22T12:35:02;5.90;;;1.97;;
5414;SDS011;2730;51.512;7.504;2022-10-22T12:37:33;3.47;;;1.23;;
5414;SDS011;2730;51.512;7.504;2022-10-22T12:40:01;2.77;;;1.00;;
5414;SDS011;2730;51.512;7.504;2022-10-22T12:42:28;2.63;;;1.20;;
5414;SDS011;2730;51.512;7.504;2022-10-22T12:44:55;1.70;;;1.20;;
5414;SDS011;2730;51.512;7.504;2022-10-22T12:47:22;3.33;;;1.30;;
5414;SDS011;2730;51.512;7.504;2022-10-22T12:49:49;7.70;;;1.60;;
5414;SDS011;2730;51.512;7.504;2022-10-22T12:52:18;2.80;;;1.33;;
5414;SDS011;2730;51.512;7.504;2022-10-22T12:54:50;1.67;;;1.00;;
5414;SDS011;2730;51.512;7.504;2022-10-22T12:57:19;11.07;;;1.40;;
5414;SDS011;2730;51.512;7.504;2022-10-22T12:59:48;3.63;;;1.20;;
5414;SDS011;2730;51.512;7.504;2022-10-22T13:02:18;2.70;;;1.37;;
5414;SDS011;2730;51.512;7.504;2022-10-22T13:05:09;1.23;;;1.10;;
5414;SDS011;2730;51.512;7.504;2022-10-22T13:07:45;1.20;;;1.00;;
5414;SDS011;2730;51.512;7.504;2022-10-22T13:10:18;4.00;;;1.30;;
5414;SDS011;2730;51.512;7.504;2022-10-22T13:12:48;2.40;;;1.60;;
5414;SDS011;2730;51.512;7.504;2022-10-22T13:15:17;4.97;;;1.40;;
5414;SDS011;2730;51.512;7.504;2022-10-22T13:17:46;2.40;;;1.10;;
5414;SDS011;2730;51.512;7.504;2022-10-22T13:20:15;4.97;;;1.30;;
5414;SDS011;2730;51.512;7.504;2022-10-22T13:22:58;4.03;;;1.00;;
5414;SDS011;2730;51.512;7.504;2022-10-22T13:25:27;7.13;;;1.23;;
5414;SDS011;2730;51.512;7.504;2022-10-22T13:27:56;3.23;;;1.30;;
5414;SDS011;2730;51.512;7.504;2022-10-22T13:30:25;4.43;;;1.30;;
5414;SDS011;2730;51.512;7.504;2022-10-22T13:32:54;4.27;;;1.37;;
5414;SDS011;2730;51.512;7.504;2022-10-22T13:35:23;2.10;;;1.40;;
5414;SDS011;2730;51.512;7.504;2022-10-22T13:37:52;1.37;;;1.10;;
5414;SDS011;2730;51.512;7.504;2022-10-22T13:40:20;3.23;;;1.40;;
5414;SDS011;2730;51.512;7.504;2022-10-22T13:42:47;3.93;;;1.20;;
5414;SDS011;2730;51.512;7.504;2022-10-22T13:45:14;1.07;;;0.97;;
5414;SDS011;2730;51.512;7.504;2022-10-22T13:47:43;2.07;;;1.40;;
5414;SDS011;2730;51.512;7.504;2022-10-22T13:50:12;6.40;;;1.10;;
5414;SDS011;2730;51.512;7.504;2022-10-22T13:52:41;3.07;;;1.07;;
5414;SDS011;2730;51.512;7.504;2022-10-22T13:55:13;3.27;;;1.77;;
5414;SDS011;2730;51.512;7.504;2022-10-22T13:57:43;2.80;;;1.40;;
5414;SDS011;2730;51.512;7.504;2022-10-22T14:00:11;2.60;;;1.30;;
5414;SDS011;2730;51.512;7.504;2022-10-22T14:02:41;4.50;;;1.20;;
5414;SDS011;2730;51.512;7.504;2022-10-22T14:05:11;3.57;;;1.10;;
5414;SDS011;2730;51.512;7.504;2022-10-22T14:07:39;1.53;;;1.10;;
5414;SDS011;2730;51.512;7.504;2022-10-22T14:10:12;1.10;;;1.00;;
5414;SDS011;2730;51.512;7.504;2022-10-22T14:12:40;4.20;;;1.77;;
5414;SDS011;2730;51.512;7.504;2022-10-22T14:15:09;3.90;;;0.90;;
5414;SDS011;2730;51.512;7.504;2022-10-22T14:17:38;4.07;;;1.30;;
5414;SDS011;2730;51.512;7.504;2022-10-22T14:20:08;4.20;;;1.20;;
5414;SDS011;2730;51.512;7.504;2022-10-22T14:22:39;3.07;;;1.30;;
5414;SDS011;2730;51.512;7.504;2022-10-22T14:25:08;1.93;;;1.53;;
5414;SDS011;2730;51.512;7.504;2022-10-22T14:27:37;5.63;;;1.50;;
5414;SDS011;2730;51.512;7.504;2022-10-22T14:30:05;8.93;;;1.47;;
5414;SDS011;2730;51.512;7.504;2022-10-22T14:32:34;2.70;;;1.83;;
5414;SDS011;2730;51.512;7.504;2022-10-22T14:35:00;2.30;;;1.27;;
5414;SDS011;2730;51.512;7.504;2022-10-22T14:37:28;3.77;;;2.10;;
5414;SDS011;2730;51.512;7.504;2022-10-22T14:39:54;3.30;;;1.50;;
5414;SDS011;2730;51.512;7.504;2022-10-22T14:42:25;5.40;;;1.77;;
5414;SDS011;2730;51.512;7.504;2022-10-22T14:44:52;3.73;;;1.23;;
5414;SDS011;2730;51.512;7.504;2022-10-22T14:47:19;2.60;;;1.23;;
5414;SDS011;2730;51.512;7.504;2022-10-22T14:49:48;6.00;;;1.47;;
5414;SDS011;2730;51.512;7.504;2022-10-22T14:52:14;1.93;;;1.40;;
5414;SDS011;2730;51.512;7.504;2022-10-22T14:54:41;2.07;;;1.83;;
5414;SDS011;2730;51.512;7.504;2022-10-22T14:57:08;3.93;;;1.20;;
5414;SDS011;2730;51.512;7.504;2022-10-22T14:59:38;2.67;;;1.50;;
5414;SDS011;2730;51.512;7.504;2022-10-22T15:02:05;4.83;;;1.60;;
5414;SDS011;2730;51.512;7.504;2022-10-22T15:04:33;1.60;;;1.30;;
5414;SDS011;2730;51.512;7.504;2022-10-22T15:07:02;3.73;;;1.10;;
5414;SDS011;2730;51.512;7.504;2022-10-22T15:09:30;3.43;;;1.10;;
5414;SDS011;2730;51.512;7.504;2022-10-22T15:11:57;3.40;;;1.57;;
5414;SDS011;2730;51.512;7.504;2022-10-22T15:14:23;3.20;;;1.20;;
5414;SDS011;2730;51.512;7.504;2022-10-22T15:16:50;2.90;;;1.20;;
5414;SDS011;2730;51.512;7.504;2022-10-22T15:19:17;2.50;;;1.50;;
5414;SDS011;2730;51.512;7.504;2022-10-22T15:21:44;1.77;;;1.23;;
5414;SDS011;2730;51.512;7.504;2022-10-22T15:24:12;3.00;;;1.53;;
5414;SDS011;2730;51.512;7.504;2022-10-22T15:26:39;4.20;;;1.37;;
5414;SDS011;2730;51.512;7.504;2022-10-22T15:29:06;2.60;;;1.63;;
5414;SDS011;2730;51.512;7.504;2022-10-22T15:31:44;5.00;;;1.67;;
5414;SDS011;2730;51.512;7.504;2022-10-22T15:34:12;2.37;;;1.40;;
5414;SDS011;2730;51.512;7.504;2022-10-22T15:36:43;4.10;;;2.37;;
5414;SDS011;2730;51.512;7.504;2022-10-22T15:39:10;2.87;;;2.40;;
5414;SDS011;2730;51.512;7.504;2022-10-22T15:41:38;4.57;;;2.80;;
5414;SDS011;2730;51.512;7.504;2022-10-22T15:44:05;2.63;;;1.80;;
5414;SDS011;2730;51.512;7.504;2022-10-22T15:46:33;6.83;;;1.70;;
5414;SDS011;2730;51.512;7.504;2022-10-22T15:49:00;1.93;;;1.37;;
5414;SDS011;2730;51.512;7.504;2022-10-22T15:51:27;4.30;;;1.87;;
5414;SDS011;2730;51.512;7.504;2022-10-22T15:53:54;3.97;;;1.60;;
5414;SDS011;2730;51.512;7.504;2022-10-22T15:56:23;2.40;;;1.60;;
5414;SDS011;2730;51.512;7.504;2022-10-22T15:58:53;5.30;;;1.33;;
5414;SDS011;2730;51.512;7.504;2022-10-22T16:01:22;2.10;;;1.50;;
5414;SDS011;2730;51.512;7.504;2022-10-22T16:03:50;3.47;;;2.00;;
5414;SDS011;2730;51.512;7.504;2022-10-22T16:06:24;5.33;;;1.93;;
5414;SDS011;2730;51.512;7.504;2022-10-22T16:08:53;4.67;;;1.77;;
5414;SDS011;2730;51.512;7.504;2022-10-22T16:11:29;3.87;;;1.13;;
5414;SDS011;2730;51.512;7.504;2022-10-22T16:13:58;5.53;;;1.40;;
5414;SDS011;2730;51.512;7.504;2022-10-22T16:16:27;3.90;;;1.20;;
5414;SDS011;2730;51.512;7.504;2022-10-22T16:18:54;4.40;;;1.43;;
5414;SDS011;2730;51.512;7.504;2022-10-22T16:21:22;3.60;;;1.60;;
5414;SDS011;2730;51.512;7.504;2022-10-22T16:23:49;4.00;;;1.83;;
5414;SDS011;2730;51.512;7.504;2022-10-22T16:26:17;4.60;;;1.77;;
5414;SDS011;2730;51.512;7.504;2022-10-22T16:28:45;10.00;;;6.10;;
5414;SDS011;2730;51.512;7.504;2022-10-22T16:31:14;5.40;;;3.07;;
5414;SDS011;2730;51.512;7.504;2022-10-22T16:33:43;3.47;;;2.20;;
5414;SDS011;2730;51.512;7.504;2022-10-22T16:36:11;3.83;;;2.33;;
5414;SDS011;2730;51.512;7.504;2022-10-22T16:38:39;7.13;;;2.40;;
5414;SDS011;2730;51.512;7.504;2022-10-22T16:41:07;2.80;;;1.80;;
5414;SDS011;2730;51.512;7.504;2022-10-22T16:43:34;5.97;;;2.40;;
5414;SDS011;2730;51.512;7.504;2022-10-22T16:46:01;7.93;;;2.83;;
5414;SDS011;2730;51.512;7.504;2022-10-22T16:48:29;7.97;;;3.30;;
5414;SDS011;2730;51.512;7.504;2022-10-22T16:50:57;8.13;;;4.83;;
5414;SDS011;2730;51.512;7.504;2022-10-22T16:53:24;7.13;;;4.90;;
5414;SDS011;2730;51.512;7.504;2022-10-22T16:55:51;13.47;;;6.93;;
5414;SDS011;2730;51.512;7.504;2022-10-22T16:58:18;16.77;;;10.40;;
5414;SDS011;2730;51.512;7.504;2022-10-22T17:00:44;13.63;;;10.60;;
5414;SDS011;2730;51.512;7.504;2022-10-22T17:03:11;16.73;;;9.97;;
5414;SDS011;2730;51.512;7.504;2022-10-22T17:05:39;16.50;;;9.60;;
5414;SDS011;2730;51.512;7.504;2022-10-22T17:08:06;13.70;;;8.75;;
5414;SDS011;2730;51.512;7.504;2022-10-22T17:10:33;20.30;;;7.75;;
5414;SDS011;2730;51.512;7.504;2022-10-22T17:13:01;10.52;;;9.10;;
5414;SDS011;2730;51.512;7.504;2022-10-22T17:15:28;14.70;;;9.27;;
5414;SDS011;2730;51.512;7.504;2022-10-22T17:17:55;21.95;;;8.43;;
5414;SDS011;2730;51.512;7.504;2022-10-22T17:20:24;21.60;;;8.60;;
5414;SDS011;2730;51.512;7.504;2022-10-22T17:22:52;10.82;;;6.53;;
5414;SDS011;2730;51.512;7.504;2022-10-22T17:25:21;15.25;;;6.85;;
5414;SDS011;2730;51.512;7.504;2022-10-22T17:27:49;10.15;;;4.95;;
5414;SDS011;2730;51.512;7.504;2022-10-22T17:30:19;8.05;;;6.05;;
5414;SDS011;2730;51.512;7.504;2022-10-22T17:32:47;9.18;;;4.45;;
5414;SDS011;2730;51.512;7.504;2022-10-22T17:35:14;14.43;;;4.20;;
5414;SDS011;2730;51.512;7.504;2022-10-22T17:37:41;5.13;;;3.88;;
5414;SDS011;2730;51.512;7.504;2022-10-22T17:40:10;12.25;;;4.10;;
5414;SDS011;2730;51.512;7.504;2022-10-22T17:42:38;8.18;;;4.20;;
5414;SDS011;2730;51.512;7.504;2022-10-22T17:45:06;14.98;;;5.72;;
5414;SDS011;2730;51.512;7.504;2022-10-22T17:47:33;7.18;;;3.60;;
5414;SDS011;2730;51.512;7.504;2022-10-22T17:50:01;6.20;;;3.33;;
5414;SDS011;2730;51.512;7.504;2022-10-22T17:52:28;9.73;;;4.45;;
5414;SDS011;2730;51.512;7.504;2022-10-22T17:54:55;12.45;;;4.63;;
5414;SDS011;2730;51.512;7.504;2022-10-22T17:57:24;12.68;;;4.47;;
5414;SDS011;2730;51.512;7.504;2022-10-22T17:59:50;12.95;;;4.13;;
5414;SDS011;2730;51.512;7.504;2022-10-22T18:02:17;8.48;;;4.60;;
5414;SDS011;2730;51.512;7.504;2022-10-22T18:04:44;11.30;;;4.60;;
5414;SDS011;2730;51.512;7.504;2022-10-22T18:07:11;7.70;;;3.95;;
5414;SDS011;2730;51.512;7.504;2022-10-22T18:09:38;6.35;;;3.88;;
5414;SDS011;2730;51.512;7.504;2022-10-22T18:12:06;12.45;;;3.55;;
5414;SDS011;2730;51.512;7.504;2022-10-22T18:14:36;6.78;;;3.92;;
5414;SDS011;2730;51.512;7.504;2022-10-22T18:17:03;6.95;;;4.00;;
5414;SDS011;2730;51.512;7.504;2022-10-22T18:19:29;9.80;;;4.78;;
5414;SDS011;2730;51.512;7.504;2022-10-22T18:21:57;9.75;;;4.78;;
5414;SDS011;2730;51.512;7.504;2022-10-22T18:24:24;9.50;;;4.57;;
5414;SDS011;2730;51.512;7.504;2022-10-22T18:26:51;16.73;;;5.78;;
5414;SDS011;2730;51.512;7.504;2022-10-22T18:29:18;15.77;;;6.53;;
5414;SDS011;2730;51.512;7.504;2022-10-22T18:31:46;30.20;;;5.22;;
5414;SDS011;2730;51.512;7.504;2022-10-22T18:34:14;8.38;;;4.22;;
5414;SDS011;2730;51.512;7.504;2022-10-22T18:36:40;10.55;;;4.60;;
5414;SDS011;2730;51.512;7.504;2022-10-22T18:39:09;7.38;;;4.28;;
5414;SDS011;2730;51.512;7.504;2022-10-22T18:41:38;11.68;;;5.40;;
5414;SDS011;2730;51.512;7.504;2022-10-22T18:44:05;12.55;;;5.82;;
5414;SDS011;2730;51.512;7.504;2022-10-22T18:46:33;10.52;;;5.53;;
5414;SDS011;2730;51.512;7.504;2022-10-22T18:49:03;12.07;;;4.75;;
5414;SDS011;2730;51.512;7.504;2022-10-22T18:51:32;7.40;;;5.47;;
5414;SDS011;2730;51.512;7.504;2022-10-22T18:53:59;10.10;;;6.30;;
5414;SDS011;2730;51.512;7.504;2022-10-22T18:56:26;20.50;;;6.70;;
5414;SDS011;2730;51.512;7.504;2022-10-22T18:58:53;15.68;;;8.30;;
5414;SDS011;2730;51.512;7.504;2022-10-22T19:01:21;15.45;;;7.68;;
5414;SDS011;2730;51.512;7.504;2022-10-22T19:03:49;19.45;;;8.75;;
5414;SDS011;2730;51.512;7.504;2022-10-22T19:06:24;19.00;;;7.78;;
5414;SDS011;2730;51.512;7.504;2022-10-22T19:08:53;8.73;;;5.55;;
5414;SDS011;2730;51.512;7.504;2022-10-22T19:11:20;9.70;;;6.30;;
5414;SDS011;2730;51.512;7.504;2022-10-22T19:13:48;8.70;;;5.43;;
5414;SDS011;2730;51.512;7.504;2022-10-22T19:16:16;9.38;;;4.47;;
5414;SDS011;2730;51.512;7.504;2022-10-22T19:18:47;8.63;;;5.35;;
5414;SDS011;2730;51.512;7.504;2022-10-22T19:21:16;14.07;;;4.53;;
5414;SDS011;2730;51.512;7.504;2022-10-22T19:23:44;15.82;;;4.70;;
5414;SDS011;2730;51.512;7.504;2022-10-22T19:26:13;13.05;;;3.97;;
5414;SDS011;2730;51.512;7.504;2022-10-22T19:28:41;7.72;;;4.63;;
5414;SDS011;2730;51.512;7.504;2022-10-22T19:31:09;6.53;;;4.68;;
5414;SDS011;2730;51.512;7.504;2022-10-22T19:33:38;10.07;;;3.65;;
5414;SDS011;2730;51.512;7.504;2022-10-22T19:36:06;6.20;;;4.40;;
5414;SDS011;2730;51.512;7.504;2022-10-22T19:38:38;6.88;;;3.65;;
5414;SDS011;2730;51.512;7.504;2022-10-22T19:41:06;12.45;;;5.07;;
5414;SDS011;2730;51.512;7.504;2022-10-22T19:43:33;10.73;;;4.50;;
5414;SDS011;2730;51.512;7.504;2022-10-22T19:46:00;8.80;;;4.45;;
5414;SDS011;2730;51.512;7.504;2022-10-22T19:48:28;8.77;;;4.68;;
5414;SDS011;2730;51.512;7.504;2022-10-22T19:50:58;8.00;;;4.00;;
5414;SDS011;2730;51.512;7.504;2022-10-22T19:53:27;8.23;;;3.55;;
5414;SDS011;2730;51.512;7.504;2022-10-22T19:55:56;6.88;;;3.40;;
5414;SDS011;2730;51.512;7.504;2022-10-22T19:58:23;13.93;;;3.55;;
5414;SDS011;2730;51.512;7.504;2022-10-22T20:00:50;9.25;;;3.38;;
5414;SDS011;2730;51.512;7.504;2022-10-22T20:03:17;27.65;;;4.78;;
5414;SDS011;2730;51.512;7.504;2022-10-22T20:05:44;8.98;;;3.50;;
5414;SDS011;2730;51.512;7.504;2022-10-22T20:08:11;4.32;;;3.47;;
5414;SDS011;2730;51.512;7.504;2022-10-22T20:10:39;4.78;;;3.53;;
5414;SDS011;2730;51.512;7.504;2022-10-22T20:13:07;5.70;;;3.45;;
5414;SDS011;2730;51.512;7.504;2022-10-22T20:15:34;11.50;;;3.65;;
5414;SDS011;2730;51.512;7.504;2022-10-22T20:18:01;7.68;;;3.85;;
5414;SDS011;2730;51.512;7.504;2022-10-22T20:20:28;6.45;;;3.70;;
5414;SDS011;2730;51.512;7.504;2022-10-22T20:22:55;4.20;;;3.50;;
5414;SDS011;2730;51.512;7.504;2022-10-22T20:25:22;5.43;;;4.00;;